sensor_id;sensor_type;location;lat;lon;timestamp;P1;durP1;ratioP1;P2;durP2;ratioP2
14698;SDS011;7439;50.804;4.602;2023-08-07T00:00:31;13.17;;;4.93;;
14698;SDS011;7439;50.804;4.602;2023-08-07T00:02:59;10.13;;;5.57;;
14698;SDS011;7439;50.804;4.602;2023-08-07T00:05:27;8.80;;;4.90;;
14698;SDS011;7439;50.804;4.602;2023-08-07T00:07:55;9.30;;;4.87;;
14698;SDS011;7439;50.804;4.602;2023-08-07T00:10:23;7.77;;;5.17;;
14698;SDS011;7439;50.804;4.602;2023-08-07T00:12:50;5.90;;;4.87;;
14698;SDS011;7439;50.804;4.602;2023-08-07T00:15:18;9.60;;;5.27;;
14698;SDS011;7439;50.804;4.602;2023-08-07T00:17:46;6.63;;;4.77;;
14698;SDS011;7439;50.804;4.602;2023-08-07T00:20:15;7.30;;;5.30;;
14698;SDS011;7439;50.804;4.602;2023-08-07T00:22:43;16.70;;;6.23;;
14698;SDS011;7439;50.804;4.602;2023-08-07T00:25:11;13.40;;;5.33;;
14698;SDS011;7439;50.804;4.602;2023-08-07T00:27:38;5.57;;;4.80;;
14698;SDS011;7439;50.804;4.602;2023-08-07T00:30:06;9.17;;;5.33;;
14698;SDS011;7439;50.804;4.602;2023-08-07T00:32:33;8.73;;;5.23;;
14698;SDS011;7439;50.804;4.602;2023-08-07T00:35:02;5.90;;;5.30;;
14698;SDS011;7439;50.804;4.602;2023-08-07T00:37:30;6.83;;;5.37;;
14698;SDS011;7439;50.804;4.602;2023-08-07T00:39:57;5.97;;;5.53;;
14698;SDS011;7439;50.804;4.602;2023-08-07T00:42:25;8.43;;;5.13;;
14698;SDS011;7439;50.804;4.602;2023-08-07T00:44:52;7.33;;;6.67;;
14698;SDS011;7439;50.804;4.602;2023-08-07T00:47:19;9.10;;;5.37;;
14698;SDS011;7439;50.804;4.602;2023-08-07T00:49:47;7.13;;;5.47;;
14698;SDS011;7439;50.804;4.602;2023-08-07T00:52:16;6.77;;;6.10;;
14698;SDS011;7439;50.804;4.602;2023-08-07T00:54:44;5.40;;;4.90;;
14698;SDS011;7439;50.804;4.602;2023-08-07T00:57:12;10.07;;;5.53;;
14698;SDS011;7439;50.804;4.602;2023-08-07T00:59:40;7.67;;;5.40;;
14698;SDS011;7439;50.804;4.602;2023-08-07T01:02:08;5.70;;;5.20;;
14698;SDS011;7439;50.804;4.602;2023-08-07T01:04:36;9.17;;;5.63;;
14698;SDS011;7439;50.804;4.602;2023-08-07T01:07:04;8.23;;;5.83;;
14698;SDS011;7439;50.804;4.602;2023-08-07T01:09:32;8.10;;;6.13;;
14698;SDS011;7439;50.804;4.602;2023-08-07T01:12:02;5.80;;;5.30;;
14698;SDS011;7439;50.804;4.602;2023-08-07T01:14:36;11.00;;;6.17;;
14698;SDS011;7439;50.804;4.602;2023-08-07T01:17:05;8.97;;;6.63;;
14698;SDS011;7439;50.804;4.602;2023-08-07T01:19:33;8.17;;;4.73;;
14698;SDS011;7439;50.804;4.602;2023-08-07T01:22:06;6.87;;;4.53;;
14698;SDS011;7439;50.804;4.602;2023-08-07T01:24:34;8.20;;;5.33;;
14698;SDS011;7439;50.804;4.602;2023-08-07T01:27:07;8.50;;;4.90;;
14698;SDS011;7439;50.804;4.602;2023-08-07T01:29:40;5.30;;;4.67;;
14698;SDS011;7439;50.804;4.602;2023-08-07T01:32:09;6.20;;;4.90;;
14698;SDS011;7439;50.804;4.602;2023-08-07T01:34:38;9.93;;;4.70;;
14698;SDS011;7439;50.804;4.602;2023-08-07T01:37:09;5.50;;;5.00;;
14698;SDS011;7439;50.804;4.602;2023-08-07T01:39:37;5.80;;;5.27;;
14698;SDS011;7439;50.804;4.602;2023-08-07T01:42:05;6.13;;;4.90;;
14698;SDS011;7439;50.804;4.602;2023-08-07T01:44:33;8.83;;;5.13;;
14698;SDS011;7439;50.804;4.602;2023-08-07T01:47:00;6.47;;;5.13;;
14698;SDS011;7439;50.804;4.602;2023-08-07T01:49:28;6.17;;;5.50;;
14698;SDS011;7439;50.804;4.602;2023-08-07T01:51:55;5.63;;;4.70;;
14698;SDS011;7439;50.804;4.602;2023-08-07T01:54:24;5.10;;;4.60;;
14698;SDS011;7439;50.804;4.602;2023-08-07T01:56:51;5.23;;;4.83;;
14698;SDS011;7439;50.804;4.602;2023-08-07T01:59:19;5.07;;;4.53;;
14698;SDS011;7439;50.804;4.602;2023-08-07T02:01:46;6.33;;;4.90;;
14698;SDS011;7439;50.804;4.602;2023-08-07T02:04:13;7.60;;;5.67;;
14698;SDS011;7439;50.804;4.602;2023-08-07T02:06:41;6.93;;;5.47;;
14698;SDS011;7439;50.804;4.602;2023-08-07T02:09:08;4.73;;;4.33;;
14698;SDS011;7439;50.804;4.602;2023-08-07T02:11:37;5.90;;;5.40;;
14698;SDS011;7439;50.804;4.602;2023-08-07T02:14:05;5.23;;;4.73;;
14698;SDS011;7439;50.804;4.602;2023-08-07T02:16:32;7.03;;;4.70;;
14698;SDS011;7439;50.804;4.602;2023-08-07T02:18:59;9.20;;;5.20;;
14698;SDS011;7439;50.804;4.602;2023-08-07T02:21:27;6.43;;;4.80;;
14698;SDS011;7439;50.804;4.602;2023-08-07T02:23:54;6.57;;;5.10;;
14698;SDS011;7439;50.804;4.602;2023-08-07T02:26:21;5.70;;;5.20;;
14698;SDS011;7439;50.804;4.602;2023-08-07T02:28:50;5.50;;;5.10;;
14698;SDS011;7439;50.804;4.602;2023-08-07T02:31:18;6.10;;;5.50;;
14698;SDS011;7439;50.804;4.602;2023-08-07T02:33:45;5.47;;;4.77;;
14698;SDS011;7439;50.804;4.602;2023-08-07T02:36:12;5.27;;;4.77;;
14698;SDS011;7439;50.804;4.602;2023-08-07T02:38:40;5.60;;;5.10;;
14698;SDS011;7439;50.804;4.602;2023-08-07T02:41:07;6.47;;;5.00;;
14698;SDS011;7439;50.804;4.602;2023-08-07T02:43:34;6.27;;;5.50;;
14698;SDS011;7439;50.804;4.602;2023-08-07T02:46:03;5.77;;;5.07;;
14698;SDS011;7439;50.804;4.602;2023-08-07T02:48:30;6.00;;;4.80;;
14698;SDS011;7439;50.804;4.602;2023-08-07T02:50:58;10.53;;;6.13;;
14698;SDS011;7439;50.804;4.602;2023-08-07T02:53:25;5.40;;;4.90;;
14698;SDS011;7439;50.804;4.602;2023-08-07T02:55:52;5.47;;;5.10;;
14698;SDS011;7439;50.804;4.602;2023-08-07T02:58:20;5.33;;;4.83;;
14698;SDS011;7439;50.804;4.602;2023-08-07T03:00:47;6.60;;;5.00;;
14698;SDS011;7439;50.804;4.602;2023-08-07T03:03:16;5.60;;;4.87;;
14698;SDS011;7439;50.804;4.602;2023-08-07T03:05:47;5.27;;;4.77;;
14698;SDS011;7439;50.804;4.602;2023-08-07T03:08:16;4.83;;;4.43;;
14698;SDS011;7439;50.804;4.602;2023-08-07T03:10:49;6.10;;;4.60;;
14698;SDS011;7439;50.804;4.602;2023-08-07T03:13:16;5.67;;;4.87;;
14698;SDS011;7439;50.804;4.602;2023-08-07T03:15:43;7.20;;;5.00;;
14698;SDS011;7439;50.804;4.602;2023-08-07T03:18:11;5.90;;;4.63;;
14698;SDS011;7439;50.804;4.602;2023-08-07T03:20:40;4.50;;;4.20;;
14698;SDS011;7439;50.804;4.602;2023-08-07T03:23:08;4.70;;;4.20;;
14698;SDS011;7439;50.804;4.602;2023-08-07T03:25:35;7.63;;;4.67;;
14698;SDS011;7439;50.804;4.602;2023-08-07T03:28:03;4.77;;;4.37;;
14698;SDS011;7439;50.804;4.602;2023-08-07T03:30:30;6.83;;;4.57;;
14698;SDS011;7439;50.804;4.602;2023-08-07T03:32:58;4.57;;;4.17;;
14698;SDS011;7439;50.804;4.602;2023-08-07T03:35:25;5.77;;;4.33;;
14698;SDS011;7439;50.804;4.602;2023-08-07T03:37:54;6.83;;;5.17;;
14698;SDS011;7439;50.804;4.602;2023-08-07T03:40:22;4.70;;;4.13;;
14698;SDS011;7439;50.804;4.602;2023-08-07T03:42:49;9.00;;;5.50;;
14698;SDS011;7439;50.804;4.602;2023-08-07T03:45:16;4.73;;;4.10;;
14698;SDS011;7439;50.804;4.602;2023-08-07T03:47:44;4.90;;;4.20;;
14698;SDS011;7439;50.804;4.602;2023-08-07T03:50:11;6.33;;;4.23;;
14698;SDS011;7439;50.804;4.602;2023-08-07T03:52:39;6.37;;;4.63;;
14698;SDS011;7439;50.804;4.602;2023-08-07T03:55:08;8.40;;;4.30;;
14698;SDS011;7439;50.804;4.602;2023-08-07T03:57:36;6.33;;;4.80;;
14698;SDS011;7439;50.804;4.602;2023-08-07T04:00:04;5.50;;;4.57;;
14698;SDS011;7439;50.804;4.602;2023-08-07T04:02:31;6.27;;;4.33;;
14698;SDS011;7439;50.804;4.602;2023-08-07T04:04:59;6.90;;;4.77;;
14698;SDS011;7439;50.804;4.602;2023-08-07T04:07:26;5.03;;;4.57;;
14698;SDS011;7439;50.804;4.602;2023-08-07T04:09:53;5.67;;;4.30;;
14698;SDS011;7439;50.804;4.602;2023-08-07T04:12:22;6.60;;;4.20;;
14698;SDS011;7439;50.804;4.602;2023-08-07T04:14:50;5.03;;;4.47;;
14698;SDS011;7439;50.804;4.602;2023-08-07T04:17:17;6.67;;;4.47;;
14698;SDS011;7439;50.804;4.602;2023-08-07T04:19:45;6.80;;;5.63;;
14698;SDS011;7439;50.804;4.602;2023-08-07T04:22:12;7.13;;;4.57;;
14698;SDS011;7439;50.804;4.602;2023-08-07T04:24:40;6.47;;;4.93;;
14698;SDS011;7439;50.804;4.602;2023-08-07T04:27:07;5.40;;;4.93;;
14698;SDS011;7439;50.804;4.602;2023-08-07T04:29:38;4.97;;;4.63;;
14698;SDS011;7439;50.804;4.602;2023-08-07T04:32:06;7.63;;;5.30;;
14698;SDS011;7439;50.804;4.602;2023-08-07T04:34:34;6.53;;;4.80;;
14698;SDS011;7439;50.804;4.602;2023-08-07T04:37:01;5.30;;;4.80;;
14698;SDS011;7439;50.804;4.602;2023-08-07T04:39:29;6.00;;;5.40;;
14698;SDS011;7439;50.804;4.602;2023-08-07T04:41:57;7.60;;;5.40;;
14698;SDS011;7439;50.804;4.602;2023-08-07T04:44:24;5.60;;;5.20;;
14698;SDS011;7439;50.804;4.602;2023-08-07T04:46:53;4.60;;;4.20;;
14698;SDS011;7439;50.804;4.602;2023-08-07T04:49:20;5.10;;;4.20;;
14698;SDS011;7439;50.804;4.602;2023-08-07T04:51:48;5.00;;;4.60;;
14698;SDS011;7439;50.804;4.602;2023-08-07T04:54:15;7.10;;;4.97;;
14698;SDS011;7439;50.804;4.602;2023-08-07T04:56:43;5.07;;;4.57;;
14698;SDS011;7439;50.804;4.602;2023-08-07T04:59:10;6.10;;;4.90;;
14698;SDS011;7439;50.804;4.602;2023-08-07T05:01:37;4.97;;;4.57;;
14698;SDS011;7439;50.804;4.602;2023-08-07T05:04:06;4.93;;;4.53;;
14698;SDS011;7439;50.804;4.602;2023-08-07T05:06:33;5.63;;;5.23;;
14698;SDS011;7439;50.804;4.602;2023-08-07T05:09:01;5.07;;;4.63;;
14698;SDS011;7439;50.804;4.602;2023-08-07T05:11:28;8.47;;;5.20;;
14698;SDS011;7439;50.804;4.602;2023-08-07T05:13:56;5.37;;;4.87;;
14698;SDS011;7439;50.804;4.602;2023-08-07T05:16:23;5.73;;;5.00;;
14698;SDS011;7439;50.804;4.602;2023-08-07T05:18:50;5.57;;;5.03;;
14698;SDS011;7439;50.804;4.602;2023-08-07T05:21:19;5.67;;;5.17;;
14698;SDS011;7439;50.804;4.602;2023-08-07T05:23:47;8.07;;;5.27;;
14698;SDS011;7439;50.804;4.602;2023-08-07T05:26:18;7.63;;;5.87;;
14698;SDS011;7439;50.804;4.602;2023-08-07T05:28:45;6.40;;;5.77;;
14698;SDS011;7439;50.804;4.602;2023-08-07T05:31:13;5.80;;;5.27;;
14698;SDS011;7439;50.804;4.602;2023-08-07T05:33:40;5.13;;;4.70;;
14698;SDS011;7439;50.804;4.602;2023-08-07T05:36:07;5.50;;;5.17;;
14698;SDS011;7439;50.804;4.602;2023-08-07T05:38:36;5.83;;;5.23;;
14698;SDS011;7439;50.804;4.602;2023-08-07T05:41:04;6.50;;;5.17;;
14698;SDS011;7439;50.804;4.602;2023-08-07T05:43:31;7.70;;;5.80;;
14698;SDS011;7439;50.804;4.602;2023-08-07T05:45:58;8.07;;;5.63;;
14698;SDS011;7439;50.804;4.602;2023-08-07T05:48:26;5.30;;;4.90;;
14698;SDS011;7439;50.804;4.602;2023-08-07T05:50:53;6.33;;;5.63;;
14698;SDS011;7439;50.804;4.602;2023-08-07T05:53:21;7.30;;;5.43;;
14698;SDS011;7439;50.804;4.602;2023-08-07T05:55:50;6.87;;;5.90;;
14698;SDS011;7439;50.804;4.602;2023-08-07T05:58:17;7.20;;;5.57;;
14698;SDS011;7439;50.804;4.602;2023-08-07T06:00:45;6.43;;;5.60;;
14698;SDS011;7439;50.804;4.602;2023-08-07T06:03:12;5.70;;;5.20;;
14698;SDS011;7439;50.804;4.602;2023-08-07T06:05:39;7.83;;;6.33;;
14698;SDS011;7439;50.804;4.602;2023-08-07T06:08:07;6.10;;;5.50;;
14698;SDS011;7439;50.804;4.602;2023-08-07T06:10:34;6.67;;;6.13;;
14698;SDS011;7439;50.804;4.602;2023-08-07T06:13:03;8.60;;;6.57;;
14698;SDS011;7439;50.804;4.602;2023-08-07T06:15:31;8.37;;;6.63;;
14698;SDS011;7439;50.804;4.602;2023-08-07T06:17:59;6.93;;;6.27;;
14698;SDS011;7439;50.804;4.602;2023-08-07T06:20:27;7.17;;;6.27;;
14698;SDS011;7439;50.804;4.602;2023-08-07T06:22:54;6.80;;;6.27;;
14698;SDS011;7439;50.804;4.602;2023-08-07T06:25:22;7.70;;;6.80;;
14698;SDS011;7439;50.804;4.602;2023-08-07T06:27:50;7.57;;;6.87;;
14698;SDS011;7439;50.804;4.602;2023-08-07T06:30:19;7.97;;;6.80;;
14698;SDS011;7439;50.804;4.602;2023-08-07T06:32:46;7.07;;;6.43;;
14698;SDS011;7439;50.804;4.602;2023-08-07T06:35:14;7.97;;;7.23;;
14698;SDS011;7439;50.804;4.602;2023-08-07T06:37:41;7.47;;;6.80;;
14698;SDS011;7439;50.804;4.602;2023-08-07T06:40:08;8.50;;;7.80;;
14698;SDS011;7439;50.804;4.602;2023-08-07T06:42:36;7.80;;;7.23;;
14698;SDS011;7439;50.804;4.602;2023-08-07T06:45:04;9.37;;;8.57;;
14698;SDS011;7439;50.804;4.602;2023-08-07T06:47:32;9.00;;;8.30;;
14698;SDS011;7439;50.804;4.602;2023-08-07T06:50:00;9.13;;;7.73;;
14698;SDS011;7439;50.804;4.602;2023-08-07T06:52:28;8.27;;;7.40;;
14698;SDS011;7439;50.804;4.602;2023-08-07T06:54:55;8.07;;;7.37;;
14698;SDS011;7439;50.804;4.602;2023-08-07T06:57:22;8.97;;;8.20;;
14698;SDS011;7439;50.804;4.602;2023-08-07T06:59:50;8.77;;;8.23;;
14698;SDS011;7439;50.804;4.602;2023-08-07T07:02:17;10.27;;;9.53;;
14698;SDS011;7439;50.804;4.602;2023-08-07T07:04:46;9.00;;;8.10;;
14698;SDS011;7439;50.804;4.602;2023-08-07T07:07:13;9.67;;;8.70;;
14698;SDS011;7439;50.804;4.602;2023-08-07T07:09:41;9.80;;;9.20;;
14698;SDS011;7439;50.804;4.602;2023-08-07T07:12:08;9.90;;;9.03;;
14698;SDS011;7439;50.804;4.602;2023-08-07T07:14:35;10.63;;;9.87;;
14698;SDS011;7439;50.804;4.602;2023-08-07T07:17:03;9.33;;;8.30;;
14698;SDS011;7439;50.804;4.602;2023-08-07T07:19:30;9.57;;;8.77;;
14698;SDS011;7439;50.804;4.602;2023-08-07T07:21:59;17.93;;;10.73;;
14698;SDS011;7439;50.804;4.602;2023-08-07T07:24:27;9.83;;;9.23;;
14698;SDS011;7439;50.804;4.602;2023-08-07T07:26:54;10.90;;;10.17;;
14698;SDS011;7439;50.804;4.602;2023-08-07T07:29:21;11.00;;;10.23;;
14698;SDS011;7439;50.804;4.602;2023-08-07T07:31:49;10.60;;;9.77;;
14698;SDS011;7439;50.804;4.602;2023-08-07T07:34:16;10.93;;;10.10;;
14698;SDS011;7439;50.804;4.602;2023-08-07T07:36:46;10.00;;;9.40;;
14698;SDS011;7439;50.804;4.602;2023-08-07T07:39:15;12.00;;;11.10;;
14698;SDS011;7439;50.804;4.602;2023-08-07T07:41:43;13.40;;;12.40;;
14698;SDS011;7439;50.804;4.602;2023-08-07T07:44:10;12.07;;;11.37;;
14698;SDS011;7439;50.804;4.602;2023-08-07T07:46:38;15.17;;;14.17;;
14698;SDS011;7439;50.804;4.602;2023-08-07T07:49:08;14.50;;;13.80;;
14698;SDS011;7439;50.804;4.602;2023-08-07T07:51:39;15.40;;;14.40;;
14698;SDS011;7439;50.804;4.602;2023-08-07T07:54:08;13.13;;;12.33;;
14698;SDS011;7439;50.804;4.602;2023-08-07T07:56:36;14.33;;;13.53;;
14698;SDS011;7439;50.804;4.602;2023-08-07T07:59:04;15.20;;;14.20;;
14698;SDS011;7439;50.804;4.602;2023-08-07T08:01:31;16.50;;;15.40;;
14698;SDS011;7439;50.804;4.602;2023-08-07T08:03:58;19.40;;;18.13;;
14698;SDS011;7439;50.804;4.602;2023-08-07T08:06:26;19.43;;;18.30;;
14698;SDS011;7439;50.804;4.602;2023-08-07T08:08:53;18.73;;;17.53;;
14698;SDS011;7439;50.804;4.602;2023-08-07T08:11:21;18.70;;;17.60;;
14698;SDS011;7439;50.804;4.602;2023-08-07T08:13:49;18.50;;;17.50;;
14698;SDS011;7439;50.804;4.602;2023-08-07T08:16:17;15.47;;;14.77;;
14698;SDS011;7439;50.804;4.602;2023-08-07T08:18:44;14.53;;;13.67;;
14698;SDS011;7439;50.804;4.602;2023-08-07T08:21:12;14.17;;;13.20;;
14698;SDS011;7439;50.804;4.602;2023-08-07T08:23:39;14.77;;;14.07;;
14698;SDS011;7439;50.804;4.602;2023-08-07T08:26:07;17.43;;;16.33;;
14698;SDS011;7439;50.804;4.602;2023-08-07T08:28:34;13.40;;;12.63;;
14698;SDS011;7439;50.804;4.602;2023-08-07T08:31:03;13.00;;;12.10;;
14698;SDS011;7439;50.804;4.602;2023-08-07T08:33:31;15.90;;;14.73;;
14698;SDS011;7439;50.804;4.602;2023-08-07T08:35:59;16.23;;;15.33;;
14698;SDS011;7439;50.804;4.602;2023-08-07T08:38:26;14.27;;;13.57;;
14698;SDS011;7439;50.804;4.602;2023-08-07T08:40:57;13.23;;;12.40;;
14698;SDS011;7439;50.804;4.602;2023-08-07T08:43:26;11.10;;;10.47;;
14698;SDS011;7439;50.804;4.602;2023-08-07T08:45:54;15.67;;;14.77;;
14698;SDS011;7439;50.804;4.602;2023-08-07T08:48:23;16.00;;;15.10;;
14698;SDS011;7439;50.804;4.602;2023-08-07T08:50:52;15.83;;;14.93;;
14698;SDS011;7439;50.804;4.602;2023-08-07T08:53:19;13.00;;;12.20;;
14698;SDS011;7439;50.804;4.602;2023-08-07T08:55:47;14.50;;;13.70;;
14698;SDS011;7439;50.804;4.602;2023-08-07T08:58:15;14.63;;;13.50;;
14698;SDS011;7439;50.804;4.602;2023-08-07T09:00:43;10.97;;;10.37;;
14698;SDS011;7439;50.804;4.602;2023-08-07T09:03:11;13.47;;;12.77;;
14698;SDS011;7439;50.804;4.602;2023-08-07T09:05:40;6.03;;;5.43;;
14698;SDS011;7439;50.804;4.602;2023-08-07T09:08:08;4.20;;;3.77;;
14698;SDS011;7439;50.804;4.602;2023-08-07T09:10:36;6.83;;;6.20;;
14698;SDS011;7439;50.804;4.602;2023-08-07T09:13:04;4.57;;;3.30;;
14698;SDS011;7439;50.804;4.602;2023-08-07T09:15:32;4.07;;;3.57;;
14698;SDS011;7439;50.804;4.602;2023-08-07T09:18:00;9.27;;;8.70;;
14698;SDS011;7439;50.804;4.602;2023-08-07T09:20:27;4.37;;;3.97;;
14698;SDS011;7439;50.804;4.602;2023-08-07T09:22:56;3.17;;;2.93;;
14698;SDS011;7439;50.804;4.602;2023-08-07T09:25:26;5.67;;;5.17;;
14698;SDS011;7439;50.804;4.602;2023-08-07T09:27:54;4.37;;;3.67;;
14698;SDS011;7439;50.804;4.602;2023-08-07T09:30:25;5.07;;;3.20;;
14698;SDS011;7439;50.804;4.602;2023-08-07T09:32:53;4.37;;;4.07;;
14698;SDS011;7439;50.804;4.602;2023-08-07T09:35:20;3.50;;;3.20;;
14698;SDS011;7439;50.804;4.602;2023-08-07T09:37:48;5.87;;;3.50;;
14698;SDS011;7439;50.804;4.602;2023-08-07T09:40:17;4.47;;;4.00;;
14698;SDS011;7439;50.804;4.602;2023-08-07T09:42:44;4.50;;;4.10;;
14698;SDS011;7439;50.804;4.602;2023-08-07T09:45:18;6.80;;;5.80;;
14698;SDS011;7439;50.804;4.602;2023-08-07T09:50:36;3.33;;;3.03;;
14698;SDS011;7439;50.804;4.602;2023-08-07T09:53:04;2.50;;;2.27;;
14698;SDS011;7439;50.804;4.602;2023-08-07T09:55:32;3.90;;;3.00;;
14698;SDS011;7439;50.804;4.602;2023-08-07T09:58:00;3.57;;;2.33;;
14698;SDS011;7439;50.804;4.602;2023-08-07T10:00:28;3.20;;;1.93;;
14698;SDS011;7439;50.804;4.602;2023-08-07T10:02:59;2.10;;;1.90;;
14698;SDS011;7439;50.804;4.602;2023-08-07T10:05:27;2.93;;;2.47;;
14698;SDS011;7439;50.804;4.602;2023-08-07T10:07:55;2.40;;;2.10;;
14698;SDS011;7439;50.804;4.602;2023-08-07T10:10:22;1.83;;;1.60;;
14698;SDS011;7439;50.804;4.602;2023-08-07T10:12:51;1.93;;;1.73;;
14698;SDS011;7439;50.804;4.602;2023-08-07T10:15:19;6.43;;;1.60;;
14698;SDS011;7439;50.804;4.602;2023-08-07T10:17:47;4.10;;;1.83;;
14698;SDS011;7439;50.804;4.602;2023-08-07T10:20:14;1.80;;;1.70;;
14698;SDS011;7439;50.804;4.602;2023-08-07T10:22:41;1.80;;;1.60;;
14698;SDS011;7439;50.804;4.602;2023-08-07T10:25:09;1.97;;;1.77;;
14698;SDS011;7439;50.804;4.602;2023-08-07T10:27:37;4.13;;;1.70;;
14698;SDS011;7439;50.804;4.602;2023-08-07T10:30:07;2.77;;;1.97;;
14698;SDS011;7439;50.804;4.602;2023-08-07T10:32:37;3.93;;;1.70;;
14698;SDS011;7439;50.804;4.602;2023-08-07T10:35:05;2.17;;;1.77;;
14698;SDS011;7439;50.804;4.602;2023-08-07T10:37:33;2.83;;;1.70;;
14698;SDS011;7439;50.804;4.602;2023-08-07T10:40:05;2.07;;;1.87;;
14698;SDS011;7439;50.804;4.602;2023-08-07T10:45:18;2.93;;;1.80;;
14698;SDS011;7439;50.804;4.602;2023-08-07T10:47:56;2.97;;;2.10;;
14698;SDS011;7439;50.804;4.602;2023-08-07T10:50:27;3.37;;;2.20;;
14698;SDS011;7439;50.804;4.602;2023-08-07T10:52:54;3.90;;;2.20;;
14698;SDS011;7439;50.804;4.602;2023-08-07T10:55:22;2.47;;;2.00;;
14698;SDS011;7439;50.804;4.602;2023-08-07T10:57:50;1.90;;;1.80;;
14698;SDS011;7439;50.804;4.602;2023-08-07T11:00:19;3.00;;;1.67;;
14698;SDS011;7439;50.804;4.602;2023-08-07T11:02:49;1.73;;;1.63;;
14698;SDS011;7439;50.804;4.602;2023-08-07T11:05:18;2.63;;;2.10;;
14698;SDS011;7439;50.804;4.602;2023-08-07T11:07:46;1.97;;;1.70;;
14698;SDS011;7439;50.804;4.602;2023-08-07T11:10:13;2.50;;;1.90;;
14698;SDS011;7439;50.804;4.602;2023-08-07T11:12:42;3.60;;;2.00;;
14698;SDS011;7439;50.804;4.602;2023-08-07T11:15:11;2.10;;;1.90;;
14698;SDS011;7439;50.804;4.602;2023-08-07T11:17:41;1.90;;;1.80;;
14698;SDS011;7439;50.804;4.602;2023-08-07T11:20:09;2.10;;;1.70;;
14698;SDS011;7439;50.804;4.602;2023-08-07T11:22:37;1.40;;;1.30;;
14698;SDS011;7439;50.804;4.602;2023-08-07T11:25:06;1.73;;;1.40;;
14698;SDS011;7439;50.804;4.602;2023-08-07T11:27:38;3.07;;;1.50;;
14698;SDS011;7439;50.804;4.602;2023-08-07T11:30:10;2.23;;;1.57;;
14698;SDS011;7439;50.804;4.602;2023-08-07T11:32:38;2.90;;;1.60;;
14698;SDS011;7439;50.804;4.602;2023-08-07T11:35:07;1.50;;;1.40;;
14698;SDS011;7439;50.804;4.602;2023-08-07T11:37:35;1.87;;;1.40;;
14698;SDS011;7439;50.804;4.602;2023-08-07T11:40:03;3.00;;;1.63;;
14698;SDS011;7439;50.804;4.602;2023-08-07T11:42:30;1.50;;;1.40;;
14698;SDS011;7439;50.804;4.602;2023-08-07T11:44:57;2.33;;;1.60;;
14698;SDS011;7439;50.804;4.602;2023-08-07T11:47:25;2.50;;;1.80;;
14698;SDS011;7439;50.804;4.602;2023-08-07T11:49:53;2.27;;;1.70;;
14698;SDS011;7439;50.804;4.602;2023-08-07T11:52:22;2.73;;;1.80;;
14698;SDS011;7439;50.804;4.602;2023-08-07T11:54:49;1.77;;;1.60;;
14698;SDS011;7439;50.804;4.602;2023-08-07T11:57:17;1.57;;;1.47;;
14698;SDS011;7439;50.804;4.602;2023-08-07T11:59:49;2.00;;;1.67;;
14698;SDS011;7439;50.804;4.602;2023-08-07T12:02:16;2.07;;;1.67;;
14698;SDS011;7439;50.804;4.602;2023-08-07T12:04:44;5.37;;;1.70;;
14698;SDS011;7439;50.804;4.602;2023-08-07T12:07:11;6.80;;;3.70;;
14698;SDS011;7439;50.804;4.602;2023-08-07T12:09:47;2.80;;;1.50;;
14698;SDS011;7439;50.804;4.602;2023-08-07T12:12:14;4.00;;;1.87;;
14698;SDS011;7439;50.804;4.602;2023-08-07T12:14:41;2.17;;;1.70;;
14698;SDS011;7439;50.804;4.602;2023-08-07T12:17:09;1.97;;;1.77;;
14698;SDS011;7439;50.804;4.602;2023-08-07T12:19:37;3.17;;;2.00;;
14698;SDS011;7439;50.804;4.602;2023-08-07T12:22:06;2.00;;;1.70;;
14698;SDS011;7439;50.804;4.602;2023-08-07T12:24:35;3.40;;;1.90;;
14698;SDS011;7439;50.804;4.602;2023-08-07T12:27:05;3.00;;;1.57;;
14698;SDS011;7439;50.804;4.602;2023-08-07T12:29:32;6.67;;;1.70;;
14698;SDS011;7439;50.804;4.602;2023-08-07T12:32:00;3.07;;;1.80;;
14698;SDS011;7439;50.804;4.602;2023-08-07T12:34:28;1.70;;;1.50;;
14698;SDS011;7439;50.804;4.602;2023-08-07T12:36:55;1.83;;;1.73;;
14698;SDS011;7439;50.804;4.602;2023-08-07T12:39:23;2.17;;;1.73;;
14698;SDS011;7439;50.804;4.602;2023-08-07T12:41:50;2.73;;;2.10;;
14698;SDS011;7439;50.804;4.602;2023-08-07T12:44:19;12.80;;;11.63;;
14698;SDS011;7439;50.804;4.602;2023-08-07T12:46:46;1.70;;;1.60;;
14698;SDS011;7439;50.804;4.602;2023-08-07T12:49:14;2.57;;;1.80;;
14698;SDS011;7439;50.804;4.602;2023-08-07T12:51:42;1.80;;;1.53;;
14698;SDS011;7439;50.804;4.602;2023-08-07T12:54:09;2.60;;;1.70;;
14698;SDS011;7439;50.804;4.602;2023-08-07T12:56:37;4.93;;;4.53;;
14698;SDS011;7439;50.804;4.602;2023-08-07T12:59:04;2.20;;;1.63;;
14698;SDS011;7439;50.804;4.602;2023-08-07T13:01:34;4.23;;;1.80;;
14698;SDS011;7439;50.804;4.602;2023-08-07T13:04:01;10.67;;;2.00;;
14698;SDS011;7439;50.804;4.602;2023-08-07T13:06:31;7.27;;;1.73;;
14698;SDS011;7439;50.804;4.602;2023-08-07T13:08:58;5.23;;;4.83;;
14698;SDS011;7439;50.804;4.602;2023-08-07T13:11:26;3.23;;;1.73;;
14698;SDS011;7439;50.804;4.602;2023-08-07T13:13:53;5.43;;;1.53;;
14698;SDS011;7439;50.804;4.602;2023-08-07T13:16:21;2.03;;;1.80;;
14698;SDS011;7439;50.804;4.602;2023-08-07T13:18:50;2.30;;;1.90;;
14698;SDS011;7439;50.804;4.602;2023-08-07T13:21:18;3.50;;;1.80;;
14698;SDS011;7439;50.804;4.602;2023-08-07T13:23:45;2.40;;;1.73;;
14698;SDS011;7439;50.804;4.602;2023-08-07T13:26:13;3.80;;;3.50;;
14698;SDS011;7439;50.804;4.602;2023-08-07T13:28:41;7.03;;;5.60;;
14698;SDS011;7439;50.804;4.602;2023-08-07T13:31:09;4.60;;;1.73;;
14698;SDS011;7439;50.804;4.602;2023-08-07T13:33:36;21.17;;;16.67;;
14698;SDS011;7439;50.804;4.602;2023-08-07T13:36:05;2.37;;;1.10;;
14698;SDS011;7439;50.804;4.602;2023-08-07T13:38:32;8.53;;;2.20;;
14698;SDS011;7439;50.804;4.602;2023-08-07T13:41:00;1.60;;;1.50;;
14698;SDS011;7439;50.804;4.602;2023-08-07T13:43:27;6.83;;;1.40;;
14698;SDS011;7439;50.804;4.602;2023-08-07T13:45:55;1.27;;;1.20;;
14698;SDS011;7439;50.804;4.602;2023-08-07T13:48:22;1.10;;;1.00;;
14698;SDS011;7439;50.804;4.602;2023-08-07T13:50:51;3.60;;;1.70;;
14698;SDS011;7439;50.804;4.602;2023-08-07T13:53:20;1.40;;;1.30;;
14698;SDS011;7439;50.804;4.602;2023-08-07T13:55:49;7.30;;;6.80;;
14698;SDS011;7439;50.804;4.602;2023-08-07T13:58:16;1.30;;;1.20;;
14698;SDS011;7439;50.804;4.602;2023-08-07T14:00:44;1.30;;;1.20;;
14698;SDS011;7439;50.804;4.602;2023-08-07T14:03:11;2.17;;;1.40;;
14698;SDS011;7439;50.804;4.602;2023-08-07T14:05:39;1.73;;;1.20;;
14698;SDS011;7439;50.804;4.602;2023-08-07T14:08:07;1.60;;;1.40;;
14698;SDS011;7439;50.804;4.602;2023-08-07T14:10:37;1.30;;;1.20;;
14698;SDS011;7439;50.804;4.602;2023-08-07T14:13:06;3.13;;;1.20;;
14698;SDS011;7439;50.804;4.602;2023-08-07T14:15:34;1.30;;;1.20;;
14698;SDS011;7439;50.804;4.602;2023-08-07T14:18:02;1.47;;;1.30;;
14698;SDS011;7439;50.804;4.602;2023-08-07T14:20:29;1.17;;;1.00;;
14698;SDS011;7439;50.804;4.602;2023-08-07T14:22:57;0.80;;;0.80;;
14698;SDS011;7439;50.804;4.602;2023-08-07T14:25:24;3.50;;;1.40;;
14698;SDS011;7439;50.804;4.602;2023-08-07T14:27:53;2.33;;;1.07;;
14698;SDS011;7439;50.804;4.602;2023-08-07T14:30:20;1.17;;;1.17;;
14698;SDS011;7439;50.804;4.602;2023-08-07T14:32:48;1.30;;;1.17;;
14698;SDS011;7439;50.804;4.602;2023-08-07T14:35:16;1.00;;;1.00;;
14698;SDS011;7439;50.804;4.602;2023-08-07T14:37:43;1.20;;;1.07;;
14698;SDS011;7439;50.804;4.602;2023-08-07T14:40:12;1.30;;;1.20;;
14698;SDS011;7439;50.804;4.602;2023-08-07T14:42:40;1.37;;;1.10;;
14698;SDS011;7439;50.804;4.602;2023-08-07T14:45:09;1.63;;;1.20;;
14698;SDS011;7439;50.804;4.602;2023-08-07T14:47:37;1.47;;;1.37;;
14698;SDS011;7439;50.804;4.602;2023-08-07T14:50:04;9.47;;;1.33;;
14698;SDS011;7439;50.804;4.602;2023-08-07T14:52:32;2.53;;;1.23;;
14698;SDS011;7439;50.804;4.602;2023-08-07T14:54:59;2.10;;;1.10;;
14698;SDS011;7439;50.804;4.602;2023-08-07T14:57:26;1.37;;;1.23;;
14698;SDS011;7439;50.804;4.602;2023-08-07T14:59:54;3.27;;;1.50;;
14698;SDS011;7439;50.804;4.602;2023-08-07T15:02:23;1.10;;;1.00;;
14698;SDS011;7439;50.804;4.602;2023-08-07T15:04:50;1.43;;;1.10;;
14698;SDS011;7439;50.804;4.602;2023-08-07T15:07:17;10.37;;;1.67;;